sensor_id;sensor_type;location;lat;lon;timestamp;pressure;altitude;pressure_sealevel;temperature;humidity
56374;BME280;58212;47.034;7.376;2023-07-31T00:02:08;95594.16;;;15.05;66.65
56374;BME280;58212;47.034;7.376;2023-07-31T00:04:35;95592.00;;;15.02;66.73
56374;BME280;58212;47.034;7.376;2023-07-31T00:07:06;95582.69;;;15.00;66.80
56374;BME280;58212;47.034;7.376;2023-07-31T00:09:32;95587.22;;;15.04;66.15
56374;BME280;58212;47.034;7.376;2023-07-31T00:12:00;95584.84;;;15.08;66.41
56374;BME280;58212;47.034;7.376;2023-07-31T00:14:26;95586.16;;;15.00;66.74
56374;BME280;58212;47.034;7.376;2023-07-31T00:16:53;95592.44;;;14.89;66.81
56374;BME280;58212;47.034;7.376;2023-07-31T00:19:21;95587.56;;;14.81;67.24
56374;BME280;58212;47.034;7.376;2023-07-31T00:21:49;95590.78;;;14.83;67.02
56374;BME280;58212;47.034;7.376;2023-07-31T00:24:16;95586.81;;;14.86;66.87
56374;BME280;58212;47.034;7.376;2023-07-31T00:26:43;95584.16;;;14.86;67.07
56374;BME280;58212;47.034;7.376;2023-07-31T00:29:10;95579.31;;;14.83;66.98
56374;BME280;58212;47.034;7.376;2023-07-31T00:31:36;95565.69;;;14.79;67.08
56374;BME280;58212;47.034;7.376;2023-07-31T00:34:03;95563.25;;;14.73;67.57
56374;BME280;58212;47.034;7.376;2023-07-31T00:36:34;95570.94;;;14.69;67.76
56374;BME280;58212;47.034;7.376;2023-07-31T00:39:03;95574.19;;;14.71;67.65
56374;BME280;58212;47.034;7.376;2023-07-31T00:41:30;95565.63;;;14.69;67.66
56374;BME280;58212;47.034;7.376;2023-07-31T00:43:56;95566.41;;;14.70;67.64
56374;BME280;58212;47.034;7.376;2023-07-31T00:46:24;95554.16;;;14.68;67.86
56374;BME280;58212;47.034;7.376;2023-07-31T00:48:51;95555.72;;;14.64;67.57
56374;BME280;58212;47.034;7.376;2023-07-31T00:51:18;95554.91;;;14.64;67.84
56374;BME280;58212;47.034;7.376;2023-07-31T00:53:45;95564.97;;;14.57;68.40
56374;BME280;58212;47.034;7.376;2023-07-31T00:56:15;95562.06;;;14.58;68.53
56374;BME280;58212;47.034;7.376;2023-07-31T00:58:42;95560.72;;;14.56;68.92
56374;BME280;58212;47.034;7.376;2023-07-31T01:01:11;95559.63;;;14.57;68.66
56374;BME280;58212;47.034;7.376;2023-07-31T01:03:38;95566.81;;;14.30;70.06
56374;BME280;58212;47.034;7.376;2023-07-31T01:06:14;95565.94;;;14.24;70.45
56374;BME280;58212;47.034;7.376;2023-07-31T01:08:49;95567.78;;;14.24;70.54
56374;BME280;58212;47.034;7.376;2023-07-31T01:11:27;95560.59;;;14.24;70.70
56374;BME280;58212;47.034;7.376;2023-07-31T01:13:55;95560.13;;;14.27;70.65
56374;BME280;58212;47.034;7.376;2023-07-31T01:16:22;95552.94;;;14.28;70.62
56374;BME280;58212;47.034;7.376;2023-07-31T01:18:48;95555.88;;;14.31;70.46
56374;BME280;58212;47.034;7.376;2023-07-31T01:21:40;95548.72;;;14.32;70.37
56374;BME280;58212;47.034;7.376;2023-07-31T01:24:20;95545.44;;;14.25;70.71
56374;BME280;58212;47.034;7.376;2023-07-31T01:26:53;95551.06;;;14.28;70.84
56374;BME280;58212;47.034;7.376;2023-07-31T01:29:30;95554.44;;;14.18;71.00
56374;BME280;58212;47.034;7.376;2023-07-31T01:32:02;95553.97;;;14.00;71.54
56374;BME280;58212;47.034;7.376;2023-07-31T01:34:34;95556.25;;;13.69;72.83
56374;BME280;58212;47.034;7.376;2023-07-31T01:37:03;95556.72;;;13.45;73.47
56374;BME280;58212;47.034;7.376;2023-07-31T01:39:30;95554.06;;;13.45;74.33
56374;BME280;58212;47.034;7.376;2023-07-31T01:41:58;95546.53;;;13.58;73.79
56374;BME280;58212;47.034;7.376;2023-07-31T01:44:26;95539.63;;;13.79;73.08
56374;BME280;58212;47.034;7.376;2023-07-31T01:46:54;95543.16;;;13.85;72.73
56374;BME280;58212;47.034;7.376;2023-07-31T01:49:21;95539.31;;;13.76;73.29
56374;BME280;58212;47.034;7.376;2023-07-31T01:51:47;95535.91;;;13.80;73.19
56374;BME280;58212;47.034;7.376;2023-07-31T01:54:14;95539.88;;;13.56;74.06
56374;BME280;58212;47.034;7.376;2023-07-31T01:56:41;95533.97;;;13.54;74.16
56374;BME280;58212;47.034;7.376;2023-07-31T01:59:10;95534.63;;;13.61;74.49
56374;BME280;58212;47.034;7.376;2023-07-31T02:01:37;95543.34;;;13.78;73.24
56374;BME280;58212;47.034;7.376;2023-07-31T02:04:04;95529.72;;;13.75;73.53
56374;BME280;58212;47.034;7.376;2023-07-31T02:06:31;95528.31;;;13.89;73.42
56374;BME280;58212;47.034;7.376;2023-07-31T02:08:57;95518.88;;;14.03;72.80
56374;BME280;58212;47.034;7.376;2023-07-31T02:11:24;95525.00;;;14.03;72.57
56374;BME280;58212;47.034;7.376;2023-07-31T02:13:51;95522.19;;;14.15;72.37
56374;BME280;58212;47.034;7.376;2023-07-31T02:16:19;95524.00;;;14.09;72.26
56374;BME280;58212;47.034;7.376;2023-07-31T02:18:45;95526.91;;;14.08;72.26
56374;BME280;58212;47.034;7.376;2023-07-31T02:21:12;95516.78;;;14.05;72.12
56374;BME280;58212;47.034;7.376;2023-07-31T02:23:39;95512.31;;;14.10;71.91
56374;BME280;58212;47.034;7.376;2023-07-31T02:26:05;95503.78;;;14.08;71.63
56374;BME280;58212;47.034;7.376;2023-07-31T02:28:32;95497.53;;;13.98;71.94
56374;BME280;58212;47.034;7.376;2023-07-31T02:30:59;95510.78;;;13.93;72.04
56374;BME280;58212;47.034;7.376;2023-07-31T02:33:27;95505.50;;;13.98;72.14
56374;BME280;58212;47.034;7.376;2023-07-31T02:35:53;95503.50;;;14.10;71.89
56374;BME280;58212;47.034;7.376;2023-07-31T02:38:21;95500.16;;;14.19;71.74
56374;BME280;58212;47.034;7.376;2023-07-31T02:40:48;95499.22;;;14.09;71.85
56374;BME280;58212;47.034;7.376;2023-07-31T02:43:15;95505.19;;;14.16;71.65
56374;BME280;58212;47.034;7.376;2023-07-31T02:45:42;95498.84;;;14.22;71.29
56374;BME280;58212;47.034;7.376;2023-07-31T02:48:10;95492.66;;;14.16;71.17
56374;BME280;58212;47.034;7.376;2023-07-31T02:50:38;95497.81;;;14.23;70.82
56374;BME280;58212;47.034;7.376;2023-07-31T02:53:05;95494.78;;;14.14;71.02
56374;BME280;58212;47.034;7.376;2023-07-31T02:55:33;95497.97;;;14.16;71.11
56374;BME280;58212;47.034;7.376;2023-07-31T02:57:59;95501.22;;;14.18;71.06
56374;BME280;58212;47.034;7.376;2023-07-31T03:00:26;95493.22;;;14.18;70.98
56374;BME280;58212;47.034;7.376;2023-07-31T03:02:52;95494.28;;;14.17;70.95
56374;BME280;58212;47.034;7.376;2023-07-31T03:05:19;95497.13;;;14.11;71.20
56374;BME280;58212;47.034;7.376;2023-07-31T03:07:49;95496.41;;;14.15;70.77
56374;BME280;58212;47.034;7.376;2023-07-31T03:10:15;95489.69;;;14.13;70.99
56374;BME280;58212;47.034;7.376;2023-07-31T03:12:44;95488.28;;;14.05;71.25
56374;BME280;58212;47.034;7.376;2023-07-31T03:15:12;95496.84;;;14.07;71.45
56374;BME280;58212;47.034;7.376;2023-07-31T03:17:39;95494.84;;;13.98;71.48
56374;BME280;58212;47.034;7.376;2023-07-31T03:20:06;95492.78;;;14.00;71.46
56374;BME280;58212;47.034;7.376;2023-07-31T03:22:33;95504.53;;;14.04;71.42
56374;BME280;58212;47.034;7.376;2023-07-31T03:25:02;95501.06;;;14.03;71.48
56374;BME280;58212;47.034;7.376;2023-07-31T03:27:29;95501.59;;;14.05;71.53
56374;BME280;58212;47.034;7.376;2023-07-31T03:29:58;95497.94;;;14.11;71.70
56374;BME280;58212;47.034;7.376;2023-07-31T03:32:27;95502.41;;;14.06;71.60
56374;BME280;58212;47.034;7.376;2023-07-31T03:34:54;95506.91;;;14.05;71.84
56374;BME280;58212;47.034;7.376;2023-07-31T03:37:20;95510.94;;;14.08;71.93
56374;BME280;58212;47.034;7.376;2023-07-31T03:39:47;95507.19;;;14.04;71.83
56374;BME280;58212;47.034;7.376;2023-07-31T03:42:17;95501.78;;;13.99;72.01
56374;BME280;58212;47.034;7.376;2023-07-31T03:44:44;95511.63;;;13.98;72.26
56374;BME280;58212;47.034;7.376;2023-07-31T03:47:10;95525.50;;;14.00;71.91
56374;BME280;58212;47.034;7.376;2023-07-31T03:49:37;95532.56;;;13.90;72.72
56374;BME280;58212;47.034;7.376;2023-07-31T03:52:29;95533.66;;;13.50;73.72
56374;BME280;58212;47.034;7.376;2023-07-31T03:54:56;95530.38;;;13.43;74.33
56374;BME280;58212;47.034;7.376;2023-07-31T03:57:25;95525.03;;;13.60;73.53
56374;BME280;58212;47.034;7.376;2023-07-31T03:59:52;95524.91;;;13.72;73.30
56374;BME280;58212;47.034;7.376;2023-07-31T04:02:20;95523.06;;;13.72;73.44
56374;BME280;58212;47.034;7.376;2023-07-31T04:04:46;95533.44;;;13.52;73.87
56374;BME280;58212;47.034;7.376;2023-07-31T04:07:14;95527.00;;;13.48;74.08
56374;BME280;58212;47.034;7.376;2023-07-31T04:09:40;95527.06;;;13.53;74.10
56374;BME280;58212;47.034;7.376;2023-07-31T04:12:10;95522.88;;;13.57;73.99
56374;BME280;58212;47.034;7.376;2023-07-31T04:14:38;95530.78;;;13.74;73.39
56374;BME280;58212;47.034;7.376;2023-07-31T04:17:05;95544.06;;;13.74;73.42
56374;BME280;58212;47.034;7.376;2023-07-31T04:19:32;95550.00;;;13.81;73.19
56374;BME280;58212;47.034;7.376;2023-07-31T04:22:00;95551.63;;;13.82;73.28
56374;BME280;58212;47.034;7.376;2023-07-31T04:24:28;95546.19;;;13.93;72.64
56374;BME280;58212;47.034;7.376;2023-07-31T04:26:54;95546.53;;;14.02;72.17
56374;BME280;58212;47.034;7.376;2023-07-31T04:29:22;95544.31;;;13.94;72.55
56374;BME280;58212;47.034;7.376;2023-07-31T04:31:50;95542.22;;;13.96;72.49
56374;BME280;58212;47.034;7.376;2023-07-31T04:34:18;95538.75;;;13.95;72.66
56374;BME280;58212;47.034;7.376;2023-07-31T04:36:46;95547.59;;;14.01;72.43
56374;BME280;58212;47.034;7.376;2023-07-31T04:39:12;95550.91;;;14.13;72.05
56374;BME280;58212;47.034;7.376;2023-07-31T04:41:39;95547.78;;;14.16;71.76
56374;BME280;58212;47.034;7.376;2023-07-31T04:44:06;95540.88;;;14.20;71.96
56374;BME280;58212;47.034;7.376;2023-07-31T04:46:32;95531.53;;;14.17;71.88
56374;BME280;58212;47.034;7.376;2023-07-31T04:49:00;95540.47;;;14.06;72.39
56374;BME280;58212;47.034;7.376;2023-07-31T04:51:53;95555.94;;;13.88;73.49
56374;BME280;58212;47.034;7.376;2023-07-31T04:54:22;95566.84;;;13.86;73.76
56374;BME280;58212;47.034;7.376;2023-07-31T04:56:48;95559.84;;;14.02;72.82
56374;BME280;58212;47.034;7.376;2023-07-31T04:59:15;95565.72;;;13.82;73.57
56374;BME280;58212;47.034;7.376;2023-07-31T05:02:08;95552.00;;;13.90;73.93
56374;BME280;58212;47.034;7.376;2023-07-31T05:04:38;95556.81;;;14.15;73.35
56374;BME280;58212;47.034;7.376;2023-07-31T05:07:30;95552.44;;;14.31;73.37
56374;BME280;58212;47.034;7.376;2023-07-31T05:09:57;95548.34;;;14.45;72.73
56374;BME280;58212;47.034;7.376;2023-07-31T05:12:26;95551.66;;;14.57;72.38
56374;BME280;58212;47.034;7.376;2023-07-31T05:14:55;95542.66;;;14.63;72.16
56374;BME280;58212;47.034;7.376;2023-07-31T05:17:22;95547.56;;;14.76;71.98
56374;BME280;58212;47.034;7.376;2023-07-31T05:19:51;95536.66;;;14.78;71.99
56374;BME280;58212;47.034;7.376;2023-07-31T05:22:18;95532.78;;;14.95;71.19
56374;BME280;58212;47.034;7.376;2023-07-31T05:24:45;95533.38;;;15.02;71.01
56374;BME280;58212;47.034;7.376;2023-07-31T05:27:11;95548.63;;;15.07;70.44
56374;BME280;58212;47.034;7.376;2023-07-31T05:29:40;95554.53;;;15.14;69.99
56374;BME280;58212;47.034;7.376;2023-07-31T05:32:07;95549.72;;;15.11;69.64
56374;BME280;58212;47.034;7.376;2023-07-31T05:34:35;95554.53;;;15.14;69.62
56374;BME280;58212;47.034;7.376;2023-07-31T05:37:03;95546.94;;;14.96;69.76
56374;BME280;58212;47.034;7.376;2023-07-31T05:39:31;95553.72;;;15.13;69.71
56374;BME280;58212;47.034;7.376;2023-07-31T05:41:57;95560.00;;;15.76;67.22
56374;BME280;58212;47.034;7.376;2023-07-31T05:44:25;95550.25;;;16.12;65.93
56374;BME280;58212;47.034;7.376;2023-07-31T05:46:51;95555.72;;;17.33;61.66
56374;BME280;58212;47.034;7.376;2023-07-31T05:49:18;95549.09;;;17.05;62.41
56374;BME280;58212;47.034;7.376;2023-07-31T05:51:45;95543.47;;;16.87;62.43
56374;BME280;58212;47.034;7.376;2023-07-31T05:54:13;95543.13;;;16.53;64.10
56374;BME280;58212;47.034;7.376;2023-07-31T05:56:40;95544.16;;;16.27;65.38
56374;BME280;58212;47.034;7.376;2023-07-31T05:59:11;95536.44;;;16.35;65.37
56374;BME280;58212;47.034;7.376;2023-07-31T06:01:38;95537.53;;;17.61;62.21
56374;BME280;58212;47.034;7.376;2023-07-31T06:04:05;95533.56;;;17.07;61.98
56374;BME280;58212;47.034;7.376;2023-07-31T06:06:32;95523.41;;;16.59;64.21
56374;BME280;58212;47.034;7.376;2023-07-31T06:08:58;95523.97;;;16.76;64.06
56374;BME280;58212;47.034;7.376;2023-07-31T06:11:27;95522.34;;;16.95;63.69
56374;BME280;58212;47.034;7.376;2023-07-31T06:13:54;95499.53;;;18.95;56.75
56374;BME280;58212;47.034;7.376;2023-07-31T06:16:21;95487.84;;;19.44;55.19
56374;BME280;58212;47.034;7.376;2023-07-31T06:18:47;95485.53;;;18.70;56.59
56374;BME280;58212;47.034;7.376;2023-07-31T06:21:14;95496.34;;;18.05;58.72
56374;BME280;58212;47.034;7.376;2023-07-31T06:23:41;95498.72;;;18.95;56.64
56374;BME280;58212;47.034;7.376;2023-07-31T06:26:08;95515.88;;;18.99;56.15
56374;BME280;58212;47.034;7.376;2023-07-31T06:28:36;95514.78;;;18.66;57.11
56374;BME280;58212;47.034;7.376;2023-07-31T06:31:03;95507.09;;;18.49;57.13
56374;BME280;58212;47.034;7.376;2023-07-31T06:33:29;95517.03;;;17.95;59.34
56374;BME280;58212;47.034;7.376;2023-07-31T06:35:56;95521.81;;;16.93;64.33
56374;BME280;58212;47.034;7.376;2023-07-31T06:38:25;95515.66;;;16.63;65.95
56374;BME280;58212;47.034;7.376;2023-07-31T06:40:54;95507.59;;;16.47;65.91
56374;BME280;58212;47.034;7.376;2023-07-31T06:43:21;95504.97;;;16.63;65.76
56374;BME280;58212;47.034;7.376;2023-07-31T06:45:50;95515.91;;;16.51;66.14
56374;BME280;58212;47.034;7.376;2023-07-31T06:48:16;95522.06;;;16.77;65.72
56374;BME280;58212;47.034;7.376;2023-07-31T06:50:44;95517.53;;;16.87;64.57
56374;BME280;58212;47.034;7.376;2023-07-31T06:53:11;95522.34;;;17.21;64.46
56374;BME280;58212;47.034;7.376;2023-07-31T06:55:37;95519.25;;;17.78;62.61
56374;BME280;58212;47.034;7.376;2023-07-31T06:58:04;95512.44;;;18.05;60.82
56374;BME280;58212;47.034;7.376;2023-07-31T07:00:31;95510.22;;;18.23;61.24
56374;BME280;58212;47.034;7.376;2023-07-31T07:03:00;95499.84;;;18.50;60.48
56374;BME280;58212;47.034;7.376;2023-07-31T07:05:26;95504.56;;;18.24;60.52
56374;BME280;58212;47.034;7.376;2023-07-31T07:07:53;95499.34;;;18.04;61.36
56374;BME280;58212;47.034;7.376;2023-07-31T07:10:46;95492.94;;;19.12;59.11
56374;BME280;58212;47.034;7.376;2023-07-31T07:13:33;95482.59;;;19.29;57.56
56374;BME280;58212;47.034;7.376;2023-07-31T07:16:25;95479.75;;;18.86;59.38
56374;BME280;58212;47.034;7.376;2023-07-31T07:18:53;95478.06;;;19.53;57.13
56374;BME280;58212;47.034;7.376;2023-07-31T07:21:21;95472.69;;;19.24;57.65
56374;BME280;58212;47.034;7.376;2023-07-31T07:23:51;95472.47;;;19.21;56.52
56374;BME280;58212;47.034;7.376;2023-07-31T07:26:19;95471.16;;;19.18;56.16
56374;BME280;58212;47.034;7.376;2023-07-31T07:28:46;95472.94;;;19.28;55.22
56374;BME280;58212;47.034;7.376;2023-07-31T07:31:21;95461.16;;;19.76;52.98
56374;BME280;58212;47.034;7.376;2023-07-31T07:33:48;95462.09;;;19.38;54.16
56374;BME280;58212;47.034;7.376;2023-07-31T07:36:15;95461.41;;;19.75;53.91
56374;BME280;58212;47.034;7.376;2023-07-31T07:39:08;95465.41;;;20.20;51.37
56374;BME280;58212;47.034;7.376;2023-07-31T07:41:35;95474.34;;;20.34;52.40
56374;BME280;58212;47.034;7.376;2023-07-31T07:44:01;95473.28;;;20.35;50.92
56374;BME280;58212;47.034;7.376;2023-07-31T07:46:29;95480.69;;;20.94;50.49
56374;BME280;58212;47.034;7.376;2023-07-31T07:48:55;95479.53;;;20.81;47.85
56374;BME280;58212;47.034;7.376;2023-07-31T07:51:49;95475.56;;;21.57;47.72
56374;BME280;58212;47.034;7.376;2023-07-31T07:54:15;95474.84;;;21.79;46.51
56374;BME280;58212;47.034;7.376;2023-07-31T07:56:43;95474.25;;;21.82;47.27
56374;BME280;58212;47.034;7.376;2023-07-31T07:59:13;95473.94;;;21.70;47.89
56374;BME280;58212;47.034;7.376;2023-07-31T08:01:40;95472.03;;;21.84;47.11
56374;BME280;58212;47.034;7.376;2023-07-31T08:04:07;95478.94;;;20.33;51.09
56374;BME280;58212;47.034;7.376;2023-07-31T08:06:33;95483.28;;;20.99;48.85
56374;BME280;58212;47.034;7.376;2023-07-31T08:09:01;95479.03;;;20.47;50.65
56374;BME280;58212;47.034;7.376;2023-07-31T08:11:31;95488.63;;;20.11;49.81
56374;BME280;58212;47.034;7.376;2023-07-31T08:13:58;95485.81;;;20.21;50.06
56374;BME280;58212;47.034;7.376;2023-07-31T08:16:25;95476.75;;;20.54;50.01
56374;BME280;58212;47.034;7.376;2023-07-31T08:18:52;95477.91;;;20.99;47.57
56374;BME280;58212;47.034;7.376;2023-07-31T08:21:21;95469.66;;;21.41;48.26
56374;BME280;58212;47.034;7.376;2023-07-31T08:23:49;95464.06;;;19.80;50.14
56374;BME280;58212;47.034;7.376;2023-07-31T08:26:17;95454.28;;;20.26;48.93
56374;BME280;58212;47.034;7.376;2023-07-31T08:28:44;95456.53;;;20.19;49.01
56374;BME280;58212;47.034;7.376;2023-07-31T08:31:11;95442.19;;;20.29;47.80
56374;BME280;58212;47.034;7.376;2023-07-31T08:33:38;95450.00;;;19.88;48.66
56374;BME280;58212;47.034;7.376;2023-07-31T08:36:05;95452.38;;;19.89;49.05
56374;BME280;58212;47.034;7.376;2023-07-31T08:38:32;95439.53;;;20.61;47.72
56374;BME280;58212;47.034;7.376;2023-07-31T08:40:58;95437.44;;;21.23;46.03
56374;BME280;58212;47.034;7.376;2023-07-31T08:43:27;95440.59;;;21.25;46.14
56374;BME280;58212;47.034;7.376;2023-07-31T08:45:54;95443.22;;;20.84;47.51
56374;BME280;58212;47.034;7.376;2023-07-31T08:48:45;95431.34;;;21.85;46.52
56374;BME280;58212;47.034;7.376;2023-07-31T08:51:19;95436.53;;;20.63;47.99
56374;BME280;58212;47.034;7.376;2023-07-31T08:53:47;95430.16;;;21.37;47.14
56374;BME280;58212;47.034;7.376;2023-07-31T08:56:14;95431.91;;;21.14;46.57
56374;BME280;58212;47.034;7.376;2023-07-31T08:58:45;95436.75;;;20.99;48.33
56374;BME280;58212;47.034;7.376;2023-07-31T09:01:13;95433.53;;;21.29;47.05
56374;BME280;58212;47.034;7.376;2023-07-31T09:03:42;95426.72;;;20.72;46.33
56374;BME280;58212;47.034;7.376;2023-07-31T09:06:13;95424.66;;;20.82;47.76
56374;BME280;58212;47.034;7.376;2023-07-31T09:08:41;95419.28;;;21.28;47.40
56374;BME280;58212;47.034;7.376;2023-07-31T09:11:08;95410.88;;;21.84;45.99
56374;BME280;58212;47.034;7.376;2023-07-31T09:13:38;95403.38;;;22.31;44.52
56374;BME280;58212;47.034;7.376;2023-07-31T09:16:08;95401.19;;;22.33;44.78
56374;BME280;58212;47.034;7.376;2023-07-31T09:19:00;95405.72;;;21.33;47.70
56374;BME280;58212;47.034;7.376;2023-07-31T09:21:53;95406.72;;;21.24;46.07
56374;BME280;58212;47.034;7.376;2023-07-31T09:24:26;95402.22;;;21.47;44.26
56374;BME280;58212;47.034;7.376;2023-07-31T09:26:55;95401.59;;;21.77;45.37
56374;BME280;58212;47.034;7.376;2023-07-31T09:29:22;95398.16;;;22.34;45.37
56374;BME280;58212;47.034;7.376;2023-07-31T09:31:51;95405.00;;;21.82;45.46
56374;BME280;58212;47.034;7.376;2023-07-31T09:34:28;95387.28;;;23.15;43.42
56374;BME280;58212;47.034;7.376;2023-07-31T09:36:58;95378.16;;;23.02;43.17
56374;BME280;58212;47.034;7.376;2023-07-31T09:39:31;95386.66;;;22.20;43.81
56374;BME280;58212;47.034;7.376;2023-07-31T09:41:57;95386.94;;;21.97;45.43
56374;BME280;58212;47.034;7.376;2023-07-31T09:44:37;95391.34;;;21.65;46.68
56374;BME280;58212;47.034;7.376;2023-07-31T09:47:06;95383.00;;;22.03;45.70
56374;BME280;58212;47.034;7.376;2023-07-31T09:49:33;95378.47;;;21.08;46.77
56374;BME280;58212;47.034;7.376;2023-07-31T09:52:11;95377.66;;;22.25;44.33
56374;BME280;58212;47.034;7.376;2023-07-31T09:54:42;95379.00;;;22.58;43.21
56374;BME280;58212;47.034;7.376;2023-07-31T09:57:09;95374.50;;;21.60;45.86
56374;BME280;58212;47.034;7.376;2023-07-31T09:59:37;95368.56;;;22.65;42.44
56374;BME280;58212;47.034;7.376;2023-07-31T10:02:10;95362.75;;;22.72;41.80
56374;BME280;58212;47.034;7.376;2023-07-31T10:04:42;95357.00;;;22.20;42.83
56374;BME280;58212;47.034;7.376;2023-07-31T10:07:10;95364.00;;;21.58;46.83
56374;BME280;58212;47.034;7.376;2023-07-31T10:09:38;95360.16;;;21.37;46.68
56374;BME280;58212;47.034;7.376;2023-07-31T10:12:08;95356.72;;;20.90;46.98
56374;BME280;58212;47.034;7.376;2023-07-31T10:14:37;95345.38;;;21.21;47.40
56374;BME280;58212;47.034;7.376;2023-07-31T10:17:05;95339.47;;;21.60;45.43
56374;BME280;58212;47.034;7.376;2023-07-31T10:19:35;95338.06;;;22.56;43.96
56374;BME280;58212;47.034;7.376;2023-07-31T10:22:04;95342.66;;;22.11;45.63
56374;BME280;58212;47.034;7.376;2023-07-31T10:24:33;95328.38;;;21.75;43.87
56374;BME280;58212;47.034;7.376;2023-07-31T10:27:01;95325.69;;;22.64;43.31
56374;BME280;58212;47.034;7.376;2023-07-31T10:29:28;95322.50;;;23.23;41.36
56374;BME280;58212;47.034;7.376;2023-07-31T10:31:57;95324.44;;;22.61;40.10
56374;BME280;58212;47.034;7.376;2023-07-31T10:34:25;95324.16;;;22.40;43.54
56374;BME280;58212;47.034;7.376;2023-07-31T10:37:19;95318.69;;;22.10;44.43
56374;BME280;58212;47.034;7.376;2023-07-31T10:39:55;95311.03;;;22.70;42.10
56374;BME280;58212;47.034;7.376;2023-07-31T10:42:27;95313.56;;;23.06;42.10
56374;BME280;58212;47.034;7.376;2023-07-31T10:44:57;95309.94;;;23.10;43.38
56374;BME280;58212;47.034;7.376;2023-07-31T10:47:24;95300.19;;;23.01;41.91
56374;BME280;58212;47.034;7.376;2023-07-31T10:49:50;95302.38;;;23.38;42.90
56374;BME280;58212;47.034;7.376;2023-07-31T10:52:21;95298.69;;;23.25;36.52
56374;BME280;58212;47.034;7.376;2023-07-31T10:58:00;95297.44;;;23.31;39.63
56374;BME280;58212;47.034;7.376;2023-07-31T11:00:37;95290.59;;;22.55;38.54
56374;BME280;58212;47.034;7.376;2023-07-31T11:03:05;95294.31;;;22.99;39.43
56374;BME280;58212;47.034;7.376;2023-07-31T11:06:00;95288.69;;;23.26;38.73
56374;BME280;58212;47.034;7.376;2023-07-31T11:08:55;95282.41;;;23.56;35.28
56374;BME280;58212;47.034;7.376;2023-07-31T11:11:46;95282.81;;;23.41;36.72
56374;BME280;58212;47.034;7.376;2023-07-31T11:14:40;95279.25;;;22.67;37.17
56374;BME280;58212;47.034;7.376;2023-07-31T11:17:32;95282.22;;;22.87;38.08
56374;BME280;58212;47.034;7.376;2023-07-31T11:20:24;95286.38;;;23.50;37.60
56374;BME280;58212;47.034;7.376;2023-07-31T11:23:17;95268.59;;;23.01;38.51
56374;BME280;58212;47.034;7.376;2023-07-31T11:26:11;95276.16;;;22.82;40.36
56374;BME280;58212;47.034;7.376;2023-07-31T11:29:10;95271.56;;;23.39;38.92
56374;BME280;58212;47.034;7.376;2023-07-31T11:32:03;95261.59;;;23.91;37.67
56374;BME280;58212;47.034;7.376;2023-07-31T11:34:55;95262.75;;;23.16;40.87
56374;BME280;58212;47.034;7.376;2023-07-31T11:37:47;95255.97;;;22.71;41.38
56374;BME280;58212;47.034;7.376;2023-07-31T11:40:43;95261.91;;;23.90;39.98
56374;BME280;58212;47.034;7.376;2023-07-31T11:43:35;95259.66;;;24.43;37.83
56374;BME280;58212;47.034;7.376;2023-07-31T11:46:30;95249.22;;;23.73;39.21
56374;BME280;58212;47.034;7.376;2023-07-31T11:49:21;95245.94;;;24.48;38.78
56374;BME280;58212;47.034;7.376;2023-07-31T11:52:13;95245.84;;;23.93;40.05
56374;BME280;58212;47.034;7.376;2023-07-31T11:55:07;95242.47;;;24.39;39.63
56374;BME280;58212;47.034;7.376;2023-07-31T11:58:00;95233.91;;;24.75;39.09
56374;BME280;58212;47.034;7.376;2023-07-31T12:00:54;95232.00;;;24.75;38.74
56374;BME280;58212;47.034;7.376;2023-07-31T12:03:52;95236.31;;;24.76;38.96
56374;BME280;58212;47.034;7.376;2023-07-31T12:06:43;95225.88;;;24.49;39.41
56374;BME280;58212;47.034;7.376;2023-07-31T12:09:35;95228.69;;;24.06;41.13
56374;BME280;58212;47.034;7.376;2023-07-31T12:12:28;95212.13;;;24.25;40.14
56374;BME280;58212;47.034;7.376;2023-07-31T12:15:20;95218.31;;;24.08;40.18
56374;BME280;58212;47.034;7.376;2023-07-31T12:18:15;95219.41;;;24.79;38.37
56374;BME280;58212;47.034;7.376;2023-07-31T12:21:08;95212.41;;;24.70;37.90
56374;BME280;58212;47.034;7.376;2023-07-31T12:24:01;95197.53;;;24.93;37.50
56374;BME280;58212;47.034;7.376;2023-07-31T12:26:53;95191.44;;;24.67;39.29
56374;BME280;58212;47.034;7.376;2023-07-31T12:29:45;95181.38;;;24.76;38.14
56374;BME280;58212;47.034;7.376;2023-07-31T12:32:37;95188.13;;;23.89;39.72
56374;BME280;58212;47.034;7.376;2023-07-31T12:35:36;95181.91;;;23.97;39.55
56374;BME280;58212;47.034;7.376;2023-07-31T12:38:28;95171.41;;;24.59;38.88
56374;BME280;58212;47.034;7.376;2023-07-31T12:41:20;95167.69;;;24.72;38.50
56374;BME280;58212;47.034;7.376;2023-07-31T12:44:12;95162.47;;;24.97;38.14
56374;BME280;58212;47.034;7.376;2023-07-31T12:47:04;95157.22;;;25.62;35.89
56374;BME280;58212;47.034;7.376;2023-07-31T12:49:55;95165.91;;;24.76;37.13
56374;BME280;58212;47.034;7.376;2023-07-31T12:52:49;95147.63;;;25.44;35.54
56374;BME280;58212;47.034;7.376;2023-07-31T12:55:40;95150.81;;;25.46;35.79
56374;BME280;58212;47.034;7.376;2023-07-31T12:58:32;95149.81;;;25.51;37.55
56374;BME280;58212;47.034;7.376;2023-07-31T13:01:24;95142.81;;;25.29;35.28
56374;BME280;58212;47.034;7.376;2023-07-31T13:04:16;95140.91;;;25.29;36.42
56374;BME280;58212;47.034;7.376;2023-07-31T13:07:08;95138.91;;;25.18;36.08
56374;BME280;58212;47.034;7.376;2023-07-31T13:10:02;95140.91;;;24.79;36.93
56374;BME280;58212;47.034;7.376;2023-07-31T13:12:53;95131.91;;;24.58;38.02
56374;BME280;58212;47.034;7.376;2023-07-31T13:15:45;95125.03;;;25.40;37.10
56374;BME280;58212;47.034;7.376;2023-07-31T13:18:37;95125.16;;;25.02;37.33
56374;BME280;58212;47.034;7.376;2023-07-31T13:21:29;95120.53;;;25.44;36.85
56374;BME280;58212;47.034;7.376;2023-07-31T13:24:21;95114.00;;;25.45;35.90
56374;BME280;58212;47.034;7.376;2023-07-31T13:27:15;95103.22;;;26.02;36.31
56374;BME280;58212;47.034;7.376;2023-07-31T13:30:09;95113.06;;;26.07;36.04
56374;BME280;58212;47.034;7.376;2023-07-31T13:33:01;95108.22;;;25.47;36.23
56374;BME280;58212;47.034;7.376;2023-07-31T13:35:53;95103.38;;;25.73;36.40